createdAt,value
2023-01-30T00:01:50.860Z,90.07
2023-01-30T00:04:26.498Z,86.93
2023-01-30T00:07:02.641Z,86.60
2023-01-30T00:09:38.893Z,87.80
2023-01-30T00:12:15.341Z,86.43
2023-01-30T00:14:51.130Z,87.10
2023-01-30T00:17:29.928Z,86.20
2023-01-30T00:20:06.005Z,87.50
2023-01-30T00:22:52.417Z,87.33
2023-01-30T00:25:35.728Z,85.97
2023-01-30T00:28:11.828Z,86.77
2023-01-30T00:30:47.884Z,86.73
2023-01-30T00:33:26.805Z,86.47
2023-01-30T00:36:06.742Z,84.07
2023-01-30T00:38:45.412Z,87.27
2023-01-30T00:41:46.868Z,87.53
2023-01-30T00:44:38.457Z,87.27
2023-01-30T00:47:14.759Z,86.80
2023-01-30T00:49:54.296Z,84.87
2023-01-30T00:52:32.910Z,86.80
2023-01-30T00:55:10.539Z,89.17
2023-01-30T00:57:50.153Z,84.27
2023-01-30T01:00:27.511Z,85.00
2023-01-30T01:03:04.024Z,85.00
2023-01-30T01:05:44.985Z,83.17
2023-01-30T01:08:31.455Z,84.10
2023-01-30T01:11:08.970Z,85.70
2023-01-30T01:13:47.681Z,84.33
2023-01-30T01:16:29.591Z,82.77
2023-01-30T01:19:10.599Z,80.27
2023-01-30T01:21:51.001Z,80.80
2023-01-30T01:24:29.526Z,81.97
2023-01-30T01:27:05.647Z,81.90
2023-01-30T01:29:46.655Z,81.63
2023-01-30T01:32:25.608Z,82.70
2023-01-30T01:35:06.265Z,83.97
2023-01-30T01:37:48.212Z,82.07
2023-01-30T01:40:42.849Z,83.67
2023-01-30T01:43:30.160Z,82.63
2023-01-30T01:46:11.510Z,86.20
2023-01-30T01:48:52.524Z,86.40
2023-01-30T01:51:35.083Z,84.83
2023-01-30T01:54:21.444Z,84.50
2023-01-30T01:57:10.362Z,86.37
2023-01-30T01:59:53.956Z,86.10
2023-01-30T02:02:32.042Z,87.90
2023-01-30T02:05:13.087Z,88.33
2023-01-30T02:08:03.843Z,89.53
2023-01-30T02:10:51.957Z,88.67
2023-01-30T02:13:53.011Z,86.50
2023-01-30T02:16:34.892Z,87.87
2023-01-30T02:19:32.732Z,85.37
2023-01-30T02:22:50.527Z,86.20
2023-01-30T02:25:42.091Z,85.50
2023-01-30T02:28:56.300Z,84.83
2023-01-30T02:31:43.231Z,87.97
2023-01-30T02:34:38.967Z,88.23
2023-01-30T02:37:30.457Z,85.63
2023-01-30T02:40:26.369Z,85.20
2023-01-30T02:43:29.075Z,86.70
2023-01-30T02:46:17.013Z,85.63
2023-01-30T02:49:00.482Z,86.77
2023-01-30T02:51:44.890Z,87.30
2023-01-30T02:54:26.630Z,85.53
2023-01-30T02:57:16.766Z,86.37
2023-01-30T03:00:01.323Z,87.30
2023-01-30T03:03:18.121Z,89.40
2023-01-30T03:06:31.829Z,91.00
2023-01-30T03:09:20.980Z,88.90
2023-01-30T03:12:09.090Z,85.97
2023-01-30T03:14:53.519Z,88.63
2023-01-30T03:17:32.833Z,87.57
2023-01-30T03:20:16.391Z,91.23
2023-01-30T03:22:57.668Z,88.00
2023-01-30T03:25:34.713Z,89.23
2023-01-30T03:28:14.279Z,90.57
2023-01-30T03:30:55.648Z,89.37
2023-01-30T03:33:38.417Z,90.00
2023-01-30T03:36:22.959Z,87.77
2023-01-30T03:39:03.267Z,83.53
2023-01-30T03:41:42.186Z,83.30
2023-01-30T03:44:19.757Z,85.80
2023-01-30T03:46:58.425Z,83.30
2023-01-30T03:49:36.663Z,81.10
2023-01-30T03:52:13.543Z,79.70
2023-01-30T03:54:54.554Z,81.17
2023-01-30T03:57:31.301Z,81.13
2023-01-30T04:00:08.881Z,80.80
2023-01-30T04:02:56.811Z,81.40
2023-01-30T04:05:34.927Z,82.17
2023-01-30T04:08:14.445Z,81.77
2023-01-30T04:10:57.461Z,80.00
2023-01-30T04:13:37.065Z,79.20
2023-01-30T04:16:24.882Z,81.10
2023-01-30T04:19:20.004Z,77.43
2023-01-30T04:21:57.395Z,77.43
2023-01-30T04:24:34.786Z,78.10
2023-01-30T04:27:19.023Z,75.10
2023-01-30T04:30:23.536Z,70.87
2023-01-30T04:33:06.041Z,68.93
2023-01-30T04:35:43.580Z,71.13
2023-01-30T04:38:21.540Z,68.93
2023-01-30T04:41:01.759Z,69.83
2023-01-30T04:43:51.384Z,69.23
2023-01-30T04:46:52.824Z,68.07
2023-01-30T04:49:38.433Z,66.97
2023-01-30T04:52:37.146Z,69.60
2023-01-30T04:55:31.706Z,69.90
2023-01-30T04:58:20.643Z,69.63
2023-01-30T05:01:17.977Z,68.20
2023-01-30T05:03:59.011Z,71.00
2023-01-30T05:06:43.328Z,69.30
2023-01-30T05:09:26.051Z,67.77
2023-01-30T05:12:01.974Z,70.77
2023-01-30T05:14:42.717Z,70.93
2023-01-30T05:17:27.433Z,69.30
2023-01-30T05:20:04.207Z,70.73
2023-01-30T05:22:44.606Z,70.07
2023-01-30T05:25:22.203Z,67.90
2023-01-30T05:27:58.904Z,64.67
2023-01-30T05:30:40.182Z,68.33
2023-01-30T05:33:26.111Z,65.17
2023-01-30T05:36:09.453Z,63.97
2023-01-30T05:38:57.903Z,68.53
2023-01-30T05:41:34.752Z,67.43
2023-01-30T05:44:12.793Z,70.37
2023-01-30T05:46:56.204Z,70.10
2023-01-30T05:49:35.907Z,68.60
2023-01-30T05:52:14.236Z,68.03
2023-01-30T05:54:51.988Z,70.13
2023-01-30T05:57:29.444Z,66.63
2023-01-30T06:00:06.446Z,66.07
2023-01-30T06:02:48.798Z,65.83
2023-01-30T06:05:42.812Z,64.90
2023-01-30T06:08:19.617Z,66.03
2023-01-30T06:10:56.466Z,64.30
2023-01-30T06:13:37.885Z,63.37
2023-01-30T06:16:15.863Z,65.77
2023-01-30T06:18:56.249Z,64.87
2023-01-30T06:21:42.478Z,65.33
2023-01-30T06:24:18.472Z,64.90
2023-01-30T06:26:58.869Z,64.43
2023-01-30T06:29:38.411Z,65.93
2023-01-30T06:32:17.648Z,65.97
2023-01-30T06:34:54.639Z,64.17
2023-01-30T06:37:33.324Z,68.47
2023-01-30T06:40:12.293Z,64.27
2023-01-30T06:42:56.706Z,66.47
2023-01-30T06:45:35.514Z,64.27
2023-01-30T06:48:16.562Z,62.57
2023-01-30T06:50:54.460Z,63.97
2023-01-30T06:53:38.184Z,62.60
2023-01-30T06:56:21.285Z,64.73
2023-01-30T06:58:57.558Z,63.33
2023-01-30T07:01:35.166Z,64.87
2023-01-30T07:04:14.908Z,68.03
2023-01-30T07:06:51.521Z,68.53
2023-01-30T07:09:30.862Z,68.00
2023-01-30T07:12:10.436Z,66.93
2023-01-30T07:14:50.889Z,67.73
2023-01-30T07:17:37.127Z,65.37
2023-01-30T07:20:17.589Z,65.53
2023-01-30T07:22:59.308Z,67.50
2023-01-30T07:25:44.017Z,64.70
2023-01-30T07:28:26.807Z,65.07
2023-01-30T07:31:13.161Z,64.10
2023-01-30T07:33:53.444Z,63.57
2023-01-30T07:36:35.203Z,64.53
2023-01-30T07:39:14.668Z,62.57
2023-01-30T07:41:57.002Z,64.00
2023-01-30T07:44:39.097Z,63.53
2023-01-30T07:47:29.014Z,63.67
2023-01-30T07:50:06.755Z,64.47
2023-01-30T07:52:52.661Z,62.97
2023-01-30T07:55:35.786Z,63.17
2023-01-30T07:58:18.900Z,61.60
2023-01-30T08:01:00.700Z,60.33
2023-01-30T08:03:40.348Z,59.43
2023-01-30T08:06:17.841Z,60.13
2023-01-30T08:08:55.822Z,59.77
2023-01-30T08:11:36.542Z,59.83
2023-01-30T08:14:20.977Z,60.63
2023-01-30T08:17:04.579Z,62.87
2023-01-30T08:19:44.773Z,62.40
2023-01-30T08:22:25.939Z,61.27
2023-01-30T08:25:03.785Z,62.53
2023-01-30T08:27:40.391Z,60.17
2023-01-30T08:30:24.439Z,64.73
2023-01-30T08:33:00.763Z,63.50
2023-01-30T08:35:41.309Z,62.37
2023-01-30T08:38:27.864Z,61.57
2023-01-30T08:41:09.914Z,59.80
2023-01-30T08:43:47.892Z,62.73
2023-01-30T08:46:26.739Z,62.27
2023-01-30T08:49:07.413Z,62.17
2023-01-30T08:51:46.020Z,61.87
2023-01-30T08:54:23.352Z,62.33
2023-01-30T08:57:00.266Z,62.40
2023-01-30T08:59:37.727Z,63.77
2023-01-30T09:02:22.886Z,63.07
2023-01-30T09:05:03.859Z,62.20
2023-01-30T09:07:46.785Z,62.50
2023-01-30T09:10:33.534Z,60.87
2023-01-30T09:13:10.057Z,61.23
2023-01-30T09:15:51.152Z,60.80
2023-01-30T09:18:35.248Z,58.73
2023-01-30T09:21:21.142Z,61.90
2023-01-30T09:24:01.040Z,62.67
2023-01-30T09:26:42.167Z,61.07
2023-01-30T09:29:20.518Z,58.90
2023-01-30T09:32:02.064Z,59.63
2023-01-30T09:34:43.474Z,60.17
2023-01-30T09:37:20.985Z,59.73
2023-01-30T09:40:00.315Z,60.20
2023-01-30T09:43:01.630Z,59.57
2023-01-30T09:45:49.099Z,59.57
2023-01-30T09:48:35.948Z,58.77
2023-01-30T09:51:48.070Z,59.90
2023-01-30T09:54:35.012Z,61.07
2023-01-30T09:57:25.985Z,60.37
2023-01-30T10:00:24.741Z,58.80
2023-01-30T10:03:13.649Z,60.67
2023-01-30T10:05:55.792Z,61.17
2023-01-30T10:08:51.236Z,64.17
2023-01-30T10:11:42.464Z,62.43
2023-01-30T10:14:41.764Z,61.63
2023-01-30T10:17:39.157Z,64.13
2023-01-30T10:20:45.539Z,65.87
2023-01-30T10:23:49.899Z,65.10
2023-01-30T10:26:34.560Z,64.37
2023-01-30T10:29:17.506Z,64.07
2023-01-30T10:31:59.601Z,66.63
2023-01-30T10:34:43.395Z,65.70
2023-01-30T10:37:25.376Z,67.50
2023-01-30T10:40:15.800Z,67.93
2023-01-30T10:42:59.358Z,69.00
2023-01-30T10:45:45.681Z,68.63
2023-01-30T10:48:47.248Z,69.33
2023-01-30T10:51:45.166Z,67.33
2023-01-30T10:54:34.740Z,69.17
2023-01-30T10:57:27.368Z,68.90
2023-01-30T11:00:09.822Z,67.67
2023-01-30T11:03:00.134Z,69.83
2023-01-30T11:05:46.946Z,68.53
2023-01-30T11:08:33.982Z,69.07
2023-01-30T11:11:37.062Z,70.33
2023-01-30T11:14:18.387Z,71.33
2023-01-30T11:16:59.373Z,71.10
2023-01-30T11:19:42.304Z,70.60
2023-01-30T11:22:20.810Z,70.67
2023-01-30T11:25:24.653Z,73.03
2023-01-30T11:28:06.229Z,73.37
2023-01-30T11:30:49.956Z,73.53
2023-01-30T11:33:30.635Z,75.07
2023-01-30T11:36:15.473Z,75.37
2023-01-30T11:39:24.808Z,71.97
2023-01-30T11:42:12.638Z,71.33
2023-01-30T11:45:16.772Z,73.90
2023-01-30T11:48:04.765Z,74.70
2023-01-30T11:50:49.604Z,75.07
2023-01-30T11:53:36.823Z,75.70
2023-01-30T11:56:26.426Z,75.80
2023-01-30T11:59:16.248Z,76.87
2023-01-30T12:01:56.666Z,75.93
2023-01-30T12:04:41.937Z,77.10
2023-01-30T12:07:30.359Z,76.97
2023-01-30T12:10:36.073Z,79.13
2023-01-30T12:13:25.971Z,75.97
2023-01-30T12:16:23.545Z,80.33
2023-01-30T12:19:11.863Z,79.50
2023-01-30T12:22:04.417Z,77.93
2023-01-30T12:24:48.899Z,78.80
2023-01-30T12:27:38.181Z,79.37
2023-01-30T12:30:26.293Z,79.17
2023-01-30T12:33:12.699Z,78.70
2023-01-30T12:36:17.422Z,80.90
2023-01-30T12:39:20.602Z,80.30
2023-01-30T12:42:23.904Z,80.30
2023-01-30T12:45:26.109Z,81.17
2023-01-30T12:48:28.614Z,81.33
2023-01-30T12:51:19.840Z,81.43
2023-01-30T12:54:14.407Z,80.77
2023-01-30T12:57:01.952Z,80.40
2023-01-30T12:59:50.120Z,82.93
2023-01-30T13:06:37.211Z,82.90
2023-01-30T13:09:32.592Z,81.63
2023-01-30T13:12:16.457Z,83.20
2023-01-30T13:15:10.962Z,81.10
2023-01-30T13:18:34.154Z,81.80
2023-01-30T13:21:17.694Z,82.77
2023-01-30T13:24:29.292Z,81.10
2023-01-30T13:27:20.675Z,82.07
2023-01-30T13:30:04.175Z,80.03
2023-01-30T13:32:48.215Z,80.23
2023-01-30T13:35:44.096Z,80.47
2023-01-30T13:39:01.753Z,78.30
2023-01-30T13:42:04.937Z,79.60
2023-01-30T13:45:28.769Z,79.87
2023-01-30T13:48:15.976Z,79.70
2023-01-30T13:51:15.200Z,79.27
2023-01-30T13:53:56.533Z,76.03
2023-01-30T13:56:53.157Z,77.60
2023-01-30T13:59:56.639Z,80.83
2023-01-30T14:03:37.071Z,74.50
2023-01-30T14:06:42.990Z,75.40
2023-01-30T14:09:36.315Z,75.77
2023-01-30T14:12:29.173Z,78.53
2023-01-30T14:15:11.231Z,79.17
2023-01-30T14:18:08.981Z,78.40
2023-01-30T14:20:51.003Z,80.63
2023-01-30T14:23:31.889Z,80.63
2023-01-30T14:26:10.542Z,79.77
2023-01-30T14:28:57.612Z,77.43
2023-01-30T14:32:01.322Z,74.70
2023-01-30T14:35:29.229Z,76.63
2023-01-30T14:38:34.002Z,78.70
2023-01-30T14:42:21.932Z,77.37
2023-01-30T14:45:59.414Z,79.37
2023-01-30T14:49:45.026Z,83.40
2023-01-30T14:52:53.224Z,89.13
2023-01-30T14:55:33.736Z,88.90
2023-01-30T14:58:36.766Z,89.00
2023-01-30T15:01:23.486Z,87.60
2023-01-30T15:04:13.006Z,88.20
2023-01-30T15:06:51.208Z,88.87
2023-01-30T15:09:48.301Z,87.67
2023-01-30T15:12:51.446Z,90.37
2023-01-30T15:15:42.074Z,92.17
2023-01-30T15:18:40.510Z,93.77
2023-01-30T15:21:47.925Z,95.73
2023-01-30T15:25:00.860Z,97.47
2023-01-30T15:27:52.385Z,94.97
2023-01-30T15:30:44.560Z,95.90
2023-01-30T15:33:30.828Z,97.77
2023-01-30T15:36:34.873Z,96.73
2023-01-30T15:39:29.260Z,99.20
2023-01-30T15:42:20.623Z,97.93
2023-01-30T15:45:33.058Z,99.83
2023-01-30T15:48:39.024Z,100.30
2023-01-30T15:51:33.772Z,100.23
2023-01-30T15:54:32.973Z,103.47
2023-01-30T15:57:37.833Z,100.57
2023-01-30T16:00:30.430Z,99.93
2023-01-30T16:03:19.369Z,103.43
2023-01-30T16:05:58.542Z,101.97
2023-01-30T16:08:39.778Z,103.00
2023-01-30T16:11:19.456Z,100.93
2023-01-30T16:14:20.241Z,104.33
2023-01-30T16:17:04.977Z,109.00
2023-01-30T16:19:48.999Z,105.83
2023-01-30T16:22:31.751Z,106.57
2023-01-30T16:25:11.981Z,106.90
2023-01-30T16:27:55.451Z,104.47
2023-01-30T16:30:43.026Z,106.50
2023-01-30T16:33:23.416Z,106.53
2023-01-30T16:36:02.868Z,107.33
2023-01-30T16:38:48.629Z,106.50
2023-01-30T16:41:41.142Z,109.20
2023-01-30T16:44:28.051Z,110.03
2023-01-30T16:47:10.379Z,106.57
2023-01-30T16:49:54.816Z,108.37
2023-01-30T16:52:33.527Z,109.13
2023-01-30T16:55:32.943Z,110.53
2023-01-30T16:58:11.142Z,111.70
2023-01-30T17:01:03.924Z,107.47
2023-01-30T17:03:45.779Z,105.83
2023-01-30T17:06:32.338Z,109.23
2023-01-30T17:09:09.347Z,106.90
2023-01-30T17:11:46.765Z,105.30
2023-01-30T17:14:35.741Z,108.37
2023-01-30T17:17:23.728Z,107.17
2023-01-30T17:20:05.390Z,107.87
2023-01-30T17:22:46.880Z,110.47
2023-01-30T17:25:37.792Z,105.03
2023-01-30T17:28:18.613Z,104.67
2023-01-30T17:30:56.911Z,105.83
2023-01-30T17:33:34.473Z,105.73
2023-01-30T17:36:28.882Z,105.50
2023-01-30T17:39:08.687Z,106.13
2023-01-30T17:41:49.217Z,105.47
2023-01-30T17:44:27.843Z,106.20
2023-01-30T17:47:05.015Z,100.87
2023-01-30T17:49:42.949Z,100.03
2023-01-30T17:52:21.801Z,97.30
2023-01-30T17:54:58.469Z,98.07
2023-01-30T17:57:38.273Z,96.53
2023-01-30T18:00:20.427Z,93.50
2023-01-30T18:03:02.231Z,91.67
2023-01-30T18:05:41.224Z,93.23
2023-01-30T18:08:26.748Z,101.17
2023-01-30T18:11:03.407Z,110.20
2023-01-30T18:13:42.211Z,113.50
2023-01-30T18:16:24.333Z,112.23
2023-01-30T18:19:10.701Z,111.93
2023-01-30T18:21:51.265Z,112.13
2023-01-30T18:24:32.628Z,109.53
2023-01-30T18:27:08.435Z,107.60
2023-01-30T18:29:44.580Z,109.57
2023-01-30T18:32:20.712Z,108.73
2023-01-30T18:34:56.548Z,112.03
2023-01-30T18:37:37.036Z,108.93
2023-01-30T18:40:19.506Z,112.00
2023-01-30T18:43:00.299Z,111.50
2023-01-30T18:45:36.687Z,110.27
2023-01-30T18:48:14.488Z,111.30
2023-01-30T18:50:52.006Z,108.83
2023-01-30T18:53:27.897Z,107.43
2023-01-30T18:56:07.319Z,111.53
2023-01-30T18:58:46.364Z,113.57
2023-01-30T19:01:29.151Z,110.83
2023-01-30T19:04:06.541Z,112.43
2023-01-30T19:06:43.923Z,107.70
2023-01-30T19:09:21.700Z,107.13
2023-01-30T19:12:17.083Z,108.43
2023-01-30T19:14:52.711Z,111.93
2023-01-30T19:17:28.475Z,114.37
2023-01-30T19:20:10.039Z,108.03
2023-01-30T19:22:53.664Z,109.70
2023-01-30T19:25:29.522Z,111.67
2023-01-30T19:28:08.352Z,112.20
2023-01-30T19:30:44.681Z,109.13
2023-01-30T19:33:22.298Z,106.13
2023-01-30T19:35:59.318Z,98.30
2023-01-30T19:38:35.195Z,94.23
2023-01-30T19:41:15.290Z,92.57
2023-01-30T19:43:53.240Z,91.40
2023-01-30T19:46:30.497Z,95.73
2023-01-30T19:49:07.344Z,100.97
2023-01-30T19:51:43.512Z,112.43
2023-01-30T19:54:20.228Z,110.73
2023-01-30T19:56:56.077Z,121.17
2023-01-30T19:59:40.478Z,112.60
2023-01-30T20:02:17.121Z,107.23
2023-01-30T20:04:53.358Z,107.90
2023-01-30T20:07:33.844Z,107.20
2023-01-30T20:10:11.041Z,112.13
2023-01-30T20:12:46.601Z,111.90
2023-01-30T20:15:24.371Z,108.33
2023-01-30T20:17:59.468Z,108.20
2023-01-30T20:20:35.078Z,104.17
2023-01-30T20:23:10.571Z,103.17
2023-01-30T20:25:48.620Z,105.67
2023-01-30T20:28:24.559Z,106.63
2023-01-30T20:31:04.784Z,110.20
2023-01-30T20:33:40.783Z,109.67
2023-01-30T20:36:20.083Z,109.23
2023-01-30T20:39:12.967Z,108.00
2023-01-30T20:42:42.007Z,110.07
2023-01-30T20:45:17.714Z,96.50
2023-01-30T20:47:55.542Z,96.57
2023-01-30T20:50:30.872Z,100.27
2023-01-30T20:53:05.940Z,98.47
2023-01-30T20:55:41.273Z,95.93
2023-01-30T20:58:16.743Z,96.07
2023-01-30T21:00:52.467Z,94.80
2023-01-30T21:03:30.532Z,96.03
2023-01-30T21:06:06.458Z,100.43
2023-01-30T21:08:45.536Z,100.43
2023-01-30T21:11:21.938Z,100.63
2023-01-30T21:13:56.820Z,99.07
2023-01-30T21:16:33.153Z,97.60
2023-01-30T21:19:14.411Z,93.63
2023-01-30T21:21:51.949Z,98.10
2023-01-30T21:24:29.191Z,100.03
2023-01-30T21:27:05.439Z,104.07
2023-01-30T21:29:41.052Z,98.67
2023-01-30T21:32:16.842Z,101.87
2023-01-30T21:34:54.208Z,102.13
2023-01-30T21:37:45.336Z,103.50
2023-01-30T21:40:37.076Z,99.90
2023-01-30T21:43:18.706Z,100.03
2023-01-30T21:45:54.549Z,105.13
2023-01-30T21:48:29.737Z,104.80
2023-01-30T21:51:16.102Z,101.47
2023-01-30T21:53:51.091Z,106.47
2023-01-30T21:56:28.229Z,108.47
2023-01-30T21:59:05.357Z,108.57
2023-01-30T22:01:41.304Z,103.90
2023-01-30T22:04:18.055Z,109.50
2023-01-30T22:06:56.285Z,112.40
2023-01-30T22:09:32.520Z,109.80
2023-01-30T22:12:10.460Z,104.93
2023-01-30T22:14:46.006Z,108.80
2023-01-30T22:17:21.469Z,106.90
2023-01-30T22:19:57.149Z,108.63
2023-01-30T22:22:37.306Z,110.30
2023-01-30T22:25:13.384Z,96.87
2023-01-30T22:27:49.011Z,98.60
2023-01-30T22:30:24.806Z,97.20
2023-01-30T22:33:01.214Z,97.33
2023-01-30T22:35:37.202Z,97.83
2023-01-30T22:38:14.560Z,97.17
2023-01-30T22:40:50.512Z,95.37
2023-01-30T22:43:26.764Z,96.30
2023-01-30T22:46:06.221Z,99.93
2023-01-30T22:48:42.537Z,101.70
2023-01-30T22:51:19.900Z,102.33
2023-01-30T22:53:58.848Z,104.87
2023-01-30T22:56:35.950Z,103.73
2023-01-30T22:59:12.341Z,106.87
2023-01-30T23:01:52.079Z,102.70
2023-01-30T23:04:28.649Z,96.53
2023-01-30T23:07:05.192Z,113.20
2023-01-30T23:09:44.365Z,114.47
2023-01-30T23:12:47.839Z,106.43
2023-01-30T23:15:23.981Z,110.27
2023-01-30T23:18:16.703Z,112.27
2023-01-30T23:20:52.346Z,110.13
2023-01-30T23:23:28.796Z,114.27
2023-01-30T23:26:09.046Z,113.93
2023-01-30T23:28:45.420Z,113.23
2023-01-30T23:31:23.433Z,112.23
2023-01-30T23:34:01.540Z,110.67
2023-01-30T23:36:40.728Z,109.30
2023-01-30T23:39:19.829Z,106.80
2023-01-30T23:41:58.140Z,97.00
2023-01-30T23:44:36.495Z,98.10
2023-01-30T23:47:12.082Z,102.87
2023-01-30T23:49:57.303Z,100.77
2023-01-30T23:52:34.212Z,99.80
2023-01-30T23:55:13.276Z,94.23
2023-01-30T23:57:52.389Z,92.23
